createdAt,value
2019-02-27T00:01:53.747Z,4.53
2019-02-27T00:04:22.422Z,4.51
2019-02-27T00:06:51.076Z,4.55
2019-02-27T00:09:19.709Z,4.47
2019-02-27T00:11:48.339Z,4.41
2019-02-27T00:14:16.965Z,4.06
2019-02-27T00:16:45.671Z,4.10
2019-02-27T00:19:14.332Z,4.18
2019-02-27T00:21:43.514Z,4.26
2019-02-27T00:24:13.008Z,4.21
2019-02-27T00:26:42.529Z,4.16
2019-02-27T00:29:11.652Z,4.00
2019-02-27T00:31:40.310Z,3.91
2019-02-27T00:34:08.996Z,3.71
2019-02-27T00:36:37.626Z,3.66
2019-02-27T00:39:06.587Z,3.69
2019-02-27T00:41:35.223Z,3.64
2019-02-27T00:44:03.916Z,3.47
2019-02-27T00:46:32.552Z,3.62
2019-02-27T00:49:01.170Z,3.61
2019-02-27T00:51:29.815Z,3.60
2019-02-27T00:53:59.010Z,3.61
2019-02-27T00:56:27.811Z,3.67
2019-02-27T00:58:59.951Z,3.68
2019-02-27T01:01:26.826Z,3.46
2019-02-27T01:03:59.018Z,3.35
2019-02-27T01:06:25.813Z,3.26
2019-02-27T01:08:54.431Z,3.25
2019-02-27T01:11:23.058Z,3.19
2019-02-27T01:13:51.685Z,3.19
2019-02-27T01:16:20.325Z,3.20
2019-02-27T01:18:50.937Z,3.27
2019-02-27T01:21:20.074Z,3.27
2019-02-27T01:23:48.899Z,3.33
2019-02-27T01:26:17.534Z,3.30
2019-02-27T01:28:46.244Z,3.25
2019-02-27T01:31:14.888Z,3.23
2019-02-27T01:33:43.551Z,3.12
2019-02-27T01:36:12.266Z,2.91
2019-02-27T01:38:43.105Z,2.80
2019-02-27T01:41:11.825Z,2.61
2019-02-27T01:43:40.699Z,2.41
2019-02-27T01:46:09.553Z,2.53
2019-02-27T01:48:42.581Z,2.53
2019-02-27T01:51:08.677Z,2.38
2019-02-27T01:53:37.904Z,2.55
2019-02-27T01:56:07.865Z,2.71
2019-02-27T01:58:36.491Z,2.76
2019-02-27T02:01:05.381Z,2.47
2019-02-27T02:03:34.105Z,2.30
2019-02-27T02:06:02.726Z,2.43
2019-02-27T02:08:31.352Z,2.47
2019-02-27T02:11:01.473Z,2.43
2019-02-27T02:14:05.436Z,2.28
2019-02-27T02:17:15.565Z,2.33
2019-02-27T02:20:03.816Z,2.17
2019-02-27T02:23:16.461Z,2.02
2019-02-27T02:26:13.063Z,2.07
2019-02-27T02:29:20.387Z,2.12
2019-02-27T02:31:53.698Z,2.15
2019-02-27T02:35:00.862Z,1.90
2019-02-27T02:38:02.095Z,1.96
2019-02-27T02:41:10.918Z,2.03
2019-02-27T02:44:10.327Z,2.12
2019-02-27T02:47:10.893Z,2.13
2019-02-27T02:50:30.167Z,1.90
2019-02-27T02:53:24.992Z,1.84
2019-02-27T02:56:16.144Z,1.80
2019-02-27T02:59:24.678Z,1.88
2019-02-27T03:01:59.589Z,1.95
2019-02-27T03:05:11.928Z,1.93
2019-02-27T03:08:00.664Z,1.90
2019-02-27T03:10:46.712Z,1.65
2019-02-27T03:13:41.956Z,1.56
2019-02-27T03:16:29.087Z,1.37
2019-02-27T03:19:18.400Z,1.45
2019-02-27T03:22:21.667Z,1.53
2019-02-27T03:25:11.857Z,1.60
2019-02-27T03:28:21.708Z,1.57
2019-02-27T03:31:27.799Z,1.57
2019-02-27T03:34:48.175Z,1.54
2019-02-27T03:37:23.478Z,1.35
2019-02-27T03:40:18.844Z,1.43
2019-02-27T03:43:10.078Z,1.32
2019-02-27T03:45:58.997Z,1.30
2019-02-27T03:48:37.391Z,1.41
2019-02-27T03:51:30.718Z,1.54
2019-02-27T03:54:22.624Z,1.64
2019-02-27T03:57:22.745Z,1.53
2019-02-27T04:00:07.210Z,1.33
2019-02-27T04:02:45.164Z,1.14
2019-02-27T04:05:28.344Z,1.12
2019-02-27T04:08:45.053Z,1.17
2019-02-27T04:11:14.021Z,1.31
2019-02-27T04:13:42.627Z,1.31
2019-02-27T04:16:11.439Z,1.14
2019-02-27T04:18:38.790Z,1.01
2019-02-27T04:21:07.470Z,1.08
2019-02-27T04:23:36.081Z,0.90
2019-02-27T04:26:05.803Z,0.91
2019-02-27T04:28:35.245Z,0.96
2019-02-27T04:31:03.871Z,1.03
2019-02-27T04:33:32.499Z,0.94
2019-02-27T04:36:01.126Z,0.77
2019-02-27T04:38:29.760Z,0.75
2019-02-27T04:40:58.417Z,0.88
2019-02-27T04:43:27.041Z,0.96
2019-02-27T04:45:55.699Z,1.08
2019-02-27T04:48:24.320Z,1.10
2019-02-27T04:50:52.959Z,1.08
2019-02-27T04:53:21.568Z,0.90
2019-02-27T04:55:50.550Z,0.78
2019-02-27T04:58:19.801Z,0.76
2019-02-27T05:00:48.484Z,0.85
2019-02-27T05:03:17.109Z,0.88
2019-02-27T05:05:45.815Z,0.73
2019-02-27T05:08:14.423Z,0.73
2019-02-27T05:10:43.080Z,0.71
2019-02-27T05:13:11.691Z,0.63
2019-02-27T05:15:40.343Z,0.58
2019-02-27T05:18:08.987Z,0.71
2019-02-27T05:20:37.605Z,0.69
2019-02-27T05:23:06.235Z,0.70
2019-02-27T05:25:34.890Z,0.73
2019-02-27T05:28:03.529Z,0.76
2019-02-27T05:30:32.144Z,0.73
2019-02-27T05:33:02.121Z,0.65
2019-02-27T05:35:31.325Z,0.70
2019-02-27T05:37:59.963Z,0.65
2019-02-27T05:40:28.679Z,0.39
2019-02-27T05:42:57.342Z,0.25
2019-02-27T05:45:30.362Z,0.33
2019-02-27T05:47:56.487Z,0.34
2019-02-27T05:50:25.143Z,0.31
2019-02-27T05:52:53.857Z,0.26
2019-02-27T05:55:22.485Z,0.32
2019-02-27T05:57:51.564Z,0.43
2019-02-27T06:00:21.089Z,0.41
2019-02-27T06:02:49.795Z,0.37
2019-02-27T06:05:18.491Z,0.31
2019-02-27T06:07:47.184Z,0.35
2019-02-27T06:10:19.773Z,0.33
2019-02-27T06:12:46.279Z,0.22
2019-02-27T06:15:16.101Z,0.12
2019-02-27T06:17:48.803Z,-0.03
2019-02-27T06:20:15.255Z,-0.07
2019-02-27T06:22:44.019Z,-0.06
2019-02-27T06:25:21.572Z,-0.07
2019-02-27T06:27:45.479Z,-0.11
2019-02-27T06:30:16.112Z,0.00
2019-02-27T06:32:44.756Z,0.19
2019-02-27T06:35:13.581Z,0.06
2019-02-27T06:37:42.413Z,-0.01
2019-02-27T06:40:12.633Z,0.00
2019-02-27T06:42:41.342Z,0.07
2019-02-27T06:45:12.685Z,-0.03
2019-02-27T06:47:41.887Z,-0.10
2019-02-27T06:50:12.331Z,0.04
2019-02-27T06:52:42.478Z,-0.05
2019-02-27T06:55:13.130Z,0.11
2019-02-27T06:57:42.295Z,0.22
2019-02-27T07:00:16.411Z,0.29
2019-02-27T07:02:45.111Z,0.29
2019-02-27T07:05:14.163Z,0.39
2019-02-27T07:07:42.810Z,0.34
2019-02-27T07:10:12.603Z,0.43
2019-02-27T07:12:41.219Z,0.50
2019-02-27T07:15:13.424Z,0.54
2019-02-27T07:17:42.162Z,0.59
2019-02-27T07:20:11.466Z,0.61
2019-02-27T07:22:40.120Z,0.69
2019-02-27T07:25:09.459Z,0.67
2019-02-27T07:27:38.174Z,0.70
2019-02-27T07:30:08.717Z,0.71
2019-02-27T07:32:37.441Z,0.77
2019-02-27T07:35:06.195Z,0.89
2019-02-27T07:37:34.801Z,0.94
2019-02-27T07:40:08.633Z,1.08
2019-02-27T07:42:38.878Z,1.56
2019-02-27T07:45:11.333Z,1.82
2019-02-27T07:47:40.120Z,1.94
2019-02-27T07:50:11.488Z,2.07
2019-02-27T07:52:40.223Z,2.17
2019-02-27T07:55:20.996Z,2.29
2019-02-27T07:57:39.888Z,2.49
2019-02-27T08:00:14.733Z,2.59
2019-02-27T08:02:42.710Z,2.86
2019-02-27T08:05:11.505Z,2.93
2019-02-27T08:07:42.874Z,3.14
2019-02-27T08:10:14.057Z,3.45
2019-02-27T08:12:42.691Z,3.62
2019-02-27T08:15:13.683Z,3.67
2019-02-27T08:17:42.290Z,3.73
2019-02-27T08:20:11.054Z,3.78
2019-02-27T08:22:39.825Z,3.90
2019-02-27T08:25:09.773Z,4.02
2019-02-27T08:27:43.095Z,4.12
2019-02-27T08:30:12.737Z,4.33
2019-02-27T08:32:41.462Z,4.41
2019-02-27T08:35:10.160Z,4.68
2019-02-27T08:37:38.867Z,4.78
2019-02-27T08:40:07.623Z,4.84
2019-02-27T08:42:37.350Z,4.99
2019-02-27T08:45:07.163Z,5.11
2019-02-27T08:47:35.931Z,5.19
2019-02-27T08:50:04.944Z,5.27
2019-02-27T08:52:33.625Z,5.34
2019-02-27T08:55:05.405Z,5.45
2019-02-27T08:57:32.678Z,5.53
2019-02-27T09:00:01.302Z,5.84
2019-02-27T09:02:30.022Z,5.95
2019-02-27T09:04:58.681Z,5.98
2019-02-27T09:07:29.709Z,6.00
2019-02-27T09:09:58.334Z,6.15
2019-02-27T09:12:26.991Z,6.31
2019-02-27T09:14:56.016Z,6.43
2019-02-27T09:17:26.896Z,6.52
2019-02-27T09:19:55.124Z,6.49
2019-02-27T09:22:23.886Z,6.63
2019-02-27T09:25:10.997Z,6.69
2019-02-27T09:27:39.662Z,6.81
2019-02-27T09:30:10.122Z,6.96
2019-02-27T09:32:38.847Z,7.10
2019-02-27T09:35:08.387Z,7.32
2019-02-27T09:37:37.101Z,7.39
2019-02-27T09:40:06.404Z,7.56
2019-02-27T09:42:35.047Z,7.60
2019-02-27T09:45:03.850Z,7.66
2019-02-27T09:47:32.481Z,7.82
2019-02-27T09:50:01.107Z,8.03
2019-02-27T09:52:30.185Z,8.25
2019-02-27T09:54:59.283Z,8.33
2019-02-27T09:57:27.945Z,8.44
2019-02-27T09:59:56.554Z,8.55
2019-02-27T10:02:25.174Z,8.61
2019-02-27T10:04:53.806Z,8.63
2019-02-27T10:07:22.472Z,8.68
2019-02-27T10:09:51.183Z,8.85
2019-02-27T10:12:19.923Z,8.96
2019-02-27T10:14:50.255Z,9.05
2019-02-27T10:17:18.927Z,9.20
2019-02-27T10:19:47.619Z,9.22
2019-02-27T10:22:17.637Z,9.31
2019-02-27T10:24:46.634Z,9.32
2019-02-27T10:27:15.256Z,9.36
2019-02-27T10:29:47.527Z,9.46
2019-02-27T10:32:14.271Z,9.59
2019-02-27T10:34:42.898Z,9.60
2019-02-27T10:37:13.317Z,9.71
2019-02-27T10:39:42.306Z,9.75
2019-02-27T10:42:10.921Z,10.00
2019-02-27T10:44:39.638Z,10.14
2019-02-27T10:47:08.262Z,10.39
2019-02-27T10:49:38.306Z,10.48
2019-02-27T10:52:07.210Z,10.54
2019-02-27T10:54:37.016Z,10.59
2019-02-27T10:57:06.213Z,10.75
2019-02-27T10:59:34.862Z,10.77
2019-02-27T11:02:03.545Z,10.95
2019-02-27T11:04:32.201Z,10.94
2019-02-27T11:07:00.817Z,10.98
2019-02-27T11:09:30.261Z,11.03
2019-02-27T11:11:59.108Z,11.20
2019-02-27T11:14:31.730Z,11.27
2019-02-27T11:17:02.533Z,11.41
2019-02-27T11:19:31.315Z,11.51
2019-02-27T11:22:00.105Z,11.66
2019-02-27T11:24:28.811Z,11.89
2019-02-27T11:26:57.519Z,11.86
2019-02-27T11:29:26.202Z,11.89
2019-02-27T11:31:54.894Z,12.06
2019-02-27T11:34:23.547Z,12.28
2019-02-27T11:36:52.171Z,12.43
2019-02-27T11:39:20.946Z,12.59
2019-02-27T11:41:49.635Z,12.70
2019-02-27T11:44:18.283Z,12.79
2019-02-27T11:46:57.742Z,12.91
2019-02-27T11:49:17.337Z,12.97
2019-02-27T11:51:45.977Z,13.09
2019-02-27T11:54:14.642Z,13.18
2019-02-27T11:56:43.264Z,13.36
2019-02-27T11:59:12.962Z,13.32
2019-02-27T12:01:41.918Z,13.50
2019-02-27T12:04:10.643Z,13.64
2019-02-27T12:06:41.633Z,13.78
2019-02-27T12:09:09.788Z,13.78
2019-02-27T12:11:38.511Z,13.87
2019-02-27T12:14:09.009Z,13.98
2019-02-27T12:16:37.609Z,14.08
2019-02-27T12:19:06.425Z,14.16
2019-02-27T12:21:36.578Z,14.30
2019-02-27T12:24:05.474Z,14.55
2019-02-27T12:26:34.419Z,14.47
2019-02-27T12:29:04.481Z,14.72
2019-02-27T12:31:33.204Z,14.75
2019-02-27T12:34:03.339Z,14.67
2019-02-27T12:36:32.303Z,14.61
2019-02-27T12:40:11.953Z,14.69
2019-02-27T12:42:42.641Z,14.82
2019-02-27T12:45:13.787Z,14.95
2019-02-27T12:47:42.369Z,15.05
2019-02-27T12:50:12.700Z,15.13
2019-02-27T12:52:44.399Z,15.29
2019-02-27T12:55:11.885Z,15.31
2019-02-27T12:57:40.624Z,15.41
2019-02-27T13:00:11.654Z,15.48
2019-02-27T13:02:41.930Z,15.50
2019-02-27T13:05:11.596Z,15.55
2019-02-27T13:07:42.171Z,15.55
2019-02-27T13:10:13.359Z,15.56
2019-02-27T13:12:42.078Z,15.65
2019-02-27T13:15:11.895Z,15.81
2019-02-27T13:17:40.630Z,15.94
2019-02-27T13:20:12.770Z,15.98
2019-02-27T13:22:41.408Z,16.03
2019-02-27T13:25:10.143Z,15.96
2019-02-27T13:27:40.311Z,16.14
2019-02-27T13:30:10.846Z,16.12
2019-02-27T13:32:39.485Z,16.31
2019-02-27T13:35:08.325Z,16.23
2019-02-27T13:37:37.050Z,16.23
2019-02-27T13:40:07.856Z,16.36
2019-02-27T13:42:36.468Z,16.36
2019-02-27T13:45:07.834Z,16.35
2019-02-27T13:47:37.015Z,16.28
2019-02-27T13:50:06.888Z,16.40
2019-02-27T13:52:35.601Z,16.77
2019-02-27T13:55:04.383Z,16.89
2019-02-27T13:57:33.279Z,16.92
2019-02-27T14:00:01.939Z,16.90
2019-02-27T14:02:30.635Z,16.84
2019-02-27T14:05:00.665Z,16.99
2019-02-27T14:07:29.457Z,16.89
2019-02-27T14:09:58.075Z,16.94
2019-02-27T14:12:26.697Z,16.88
2019-02-27T14:14:55.954Z,16.88
2019-02-27T14:17:24.609Z,16.96
2019-02-27T14:19:55.287Z,17.04
2019-02-27T14:22:23.655Z,17.04
2019-02-27T14:24:54.865Z,17.03
2019-02-27T14:27:22.764Z,17.07
2019-02-27T14:29:51.412Z,17.40
2019-02-27T14:32:20.032Z,17.39
2019-02-27T14:34:48.794Z,17.39
2019-02-27T14:37:17.405Z,17.32
2019-02-27T14:39:46.065Z,17.57
2019-02-27T14:42:14.669Z,17.57
2019-02-27T14:44:43.313Z,17.72
2019-02-27T14:47:11.942Z,17.72
2019-02-27T14:49:40.558Z,17.67
2019-02-27T14:52:09.217Z,17.62
2019-02-27T14:54:37.880Z,17.55
2019-02-27T14:57:06.553Z,17.55
2019-02-27T14:59:35.253Z,17.49
2019-02-27T15:02:03.874Z,17.49
2019-02-27T15:04:33.349Z,17.50
2019-02-27T15:07:02.170Z,17.54
2019-02-27T15:09:30.812Z,17.40
2019-02-27T15:11:59.452Z,17.36
2019-02-27T15:14:31.025Z,17.36
2019-02-27T15:16:58.548Z,17.67
2019-02-27T15:19:30.014Z,17.63
2019-02-27T15:21:58.400Z,17.56
2019-02-27T15:24:27.085Z,17.46
2019-02-27T15:26:55.802Z,17.41
2019-02-27T15:29:24.443Z,17.34
2019-02-27T15:31:54.778Z,17.34
2019-02-27T15:34:23.490Z,17.31
2019-02-27T15:36:52.125Z,17.26
2019-02-27T15:39:21.298Z,17.19
2019-02-27T15:41:50.139Z,17.08
2019-02-27T15:44:18.879Z,17.09
2019-02-27T15:46:47.616Z,17.09
2019-02-27T15:49:16.256Z,17.05
2019-02-27T15:51:44.899Z,17.05
2019-02-27T15:54:13.536Z,16.96
2019-02-27T15:56:45.383Z,16.92
2019-02-27T15:59:12.534Z,16.92
2019-02-27T16:01:41.207Z,16.79
2019-02-27T16:04:09.957Z,16.65
2019-02-27T16:06:39.738Z,16.65
2019-02-27T16:09:09.753Z,16.79
2019-02-27T16:11:38.416Z,16.58
2019-02-27T16:14:10.168Z,16.54
2019-02-27T16:16:37.499Z,16.54
2019-02-27T16:19:07.979Z,16.42
2019-02-27T16:21:36.564Z,16.31
2019-02-27T16:24:05.451Z,16.22
2019-02-27T16:26:34.169Z,16.16
2019-02-27T16:29:02.820Z,16.13
2019-02-27T16:31:31.473Z,16.00
2019-02-27T16:34:00.150Z,16.00
2019-02-27T16:36:36.013Z,15.84
2019-02-27T16:38:59.139Z,15.64
2019-02-27T16:41:29.037Z,15.41
2019-02-27T16:43:58.011Z,15.30
2019-02-27T16:46:26.722Z,15.15
2019-02-27T16:48:55.368Z,14.97
2019-02-27T16:51:24.020Z,14.83
2019-02-27T16:53:53.228Z,14.67
2019-02-27T16:56:22.010Z,14.46
2019-02-27T16:58:50.766Z,14.35
2019-02-27T17:01:19.463Z,14.18
2019-02-27T17:03:52.553Z,14.01
2019-02-27T17:06:18.580Z,13.87
2019-02-27T17:08:47.306Z,13.70
2019-02-27T17:11:16.102Z,13.62
2019-02-27T17:13:46.994Z,13.46
2019-02-27T17:16:15.065Z,13.31
2019-02-27T17:18:43.805Z,13.18
2019-02-27T17:21:12.496Z,13.03
2019-02-27T17:23:45.407Z,12.87
2019-02-27T17:26:11.917Z,12.74
2019-02-27T17:28:40.638Z,12.63
2019-02-27T17:31:12.329Z,12.52
2019-02-27T17:33:39.889Z,12.46
2019-02-27T17:36:08.627Z,12.30
2019-02-27T17:38:37.280Z,12.17
2019-02-27T17:41:08.967Z,12.08
2019-02-27T17:43:36.888Z,11.95
2019-02-27T17:46:05.579Z,11.80
2019-02-27T17:48:34.491Z,11.74
2019-02-27T17:51:05.927Z,11.57
2019-02-27T17:53:33.542Z,11.46
2019-02-27T17:56:52.356Z,11.33
2019-02-27T17:59:21.107Z,11.19
2019-02-27T18:01:49.794Z,11.08
2019-02-27T18:04:18.434Z,10.91
2019-02-27T18:06:47.076Z,10.82
2019-02-27T18:09:15.782Z,10.73
2019-02-27T18:11:44.425Z,10.60
2019-02-27T18:14:13.118Z,10.51
2019-02-27T18:16:41.762Z,10.40
2019-02-27T18:19:10.472Z,10.28
2019-02-27T18:21:39.233Z,10.22
2019-02-27T18:24:07.925Z,10.15
2019-02-27T18:26:36.583Z,10.00
2019-02-27T18:29:07.531Z,9.93
2019-02-27T18:31:36.314Z,9.90
2019-02-27T18:34:06.362Z,9.77
2019-02-27T18:36:42.833Z,9.69
2019-02-27T18:39:16.908Z,9.70
2019-02-27T18:41:41.331Z,9.63
2019-02-27T18:44:10.206Z,9.52
2019-02-27T18:46:39.213Z,9.48
2019-02-27T18:49:08.074Z,9.37
2019-02-27T18:51:36.892Z,9.25
2019-02-27T18:54:05.680Z,9.10
2019-02-27T18:56:36.928Z,9.02
2019-02-27T18:59:05.129Z,8.90
2019-02-27T19:01:35.272Z,8.89
2019-02-27T19:04:04.212Z,8.80
2019-02-27T19:06:33.035Z,8.71
2019-02-27T19:09:01.789Z,8.65
2019-02-27T19:11:31.034Z,8.57
2019-02-27T19:14:02.391Z,8.43
2019-02-27T19:16:31.444Z,8.32
2019-02-27T19:19:00.169Z,8.25
2019-02-27T19:21:32.720Z,7.80
2019-02-27T19:24:01.866Z,7.70
2019-02-27T19:26:41.700Z,7.59
2019-02-27T19:29:10.048Z,7.67
2019-02-27T19:31:39.027Z,7.69
2019-02-27T19:34:10.272Z,7.62
2019-02-27T19:36:39.422Z,7.45
2019-02-27T19:39:08.103Z,7.51
2019-02-27T19:41:39.549Z,7.38
2019-02-27T19:44:07.358Z,7.31
2019-02-27T19:46:35.997Z,7.27
2019-02-27T19:49:04.762Z,7.03
2019-02-27T19:51:33.457Z,7.16
2019-02-27T19:54:02.451Z,7.16
2019-02-27T19:56:32.261Z,7.10
2019-02-27T19:59:02.631Z,7.08
2019-02-27T20:01:31.283Z,6.98
2019-02-27T20:04:00.435Z,7.03
2019-02-27T20:06:29.302Z,6.95
2019-02-27T20:09:00.368Z,6.88
2019-02-27T20:11:29.257Z,6.88
2019-02-27T20:14:01.962Z,6.89
2019-02-27T20:16:29.134Z,6.89
2019-02-27T20:18:57.921Z,6.76
2019-02-27T20:21:27.006Z,6.69
2019-02-27T20:24:01.436Z,6.64
2019-02-27T20:26:29.077Z,6.61
2019-02-27T20:28:58.001Z,6.56
2019-02-27T20:31:26.899Z,6.57
2019-02-27T20:33:55.810Z,6.57
2019-02-27T20:36:29.819Z,6.60
2019-02-27T20:38:56.277Z,6.58
2019-02-27T20:41:25.057Z,6.59
2019-02-27T20:43:54.013Z,6.50
2019-02-27T20:46:24.564Z,6.42
2019-02-27T20:48:56.133Z,6.35
2019-02-27T20:51:25.478Z,6.30
2019-02-27T20:53:55.497Z,6.25
2019-02-27T20:56:24.918Z,6.21
2019-02-27T20:58:53.722Z,6.16
2019-02-27T21:01:22.463Z,6.00
2019-02-27T21:03:51.772Z,5.75
2019-02-27T21:06:20.616Z,5.56
2019-02-27T21:08:49.513Z,5.61
2019-02-27T21:11:18.377Z,5.59
2019-02-27T21:13:49.592Z,5.66
2019-02-27T21:16:17.687Z,5.68
2019-02-27T21:18:46.517Z,5.62
2019-02-27T21:21:19.812Z,5.59
2019-02-27T21:23:48.853Z,5.52
2019-02-27T21:26:20.005Z,5.43
2019-02-27T21:28:57.840Z,5.45
2019-02-27T21:31:18.782Z,5.49
2019-02-27T21:33:47.559Z,5.45
2019-02-27T21:36:17.157Z,5.48
2019-02-27T21:38:47.498Z,5.48
2019-02-27T21:41:16.453Z,5.38
2019-02-27T21:43:47.553Z,5.30
2019-02-27T21:46:16.364Z,5.18
2019-02-27T21:48:45.227Z,5.05
2019-02-27T21:51:17.167Z,5.15
2019-02-27T21:53:46.275Z,4.95
2019-02-27T21:56:18.085Z,4.62
2019-02-27T21:58:46.443Z,4.84
2019-02-27T22:01:15.695Z,4.95
2019-02-27T22:03:44.935Z,4.99
2019-02-27T22:06:16.425Z,4.98
2019-02-27T22:08:45.547Z,4.96
2019-02-27T22:11:14.618Z,4.97
2019-02-27T22:13:45.336Z,4.98
2019-02-27T22:16:14.639Z,4.93
2019-02-27T22:18:46.974Z,4.78
2019-02-27T22:21:14.611Z,4.81
2019-02-27T22:23:44.820Z,4.69
2019-02-27T22:26:17.128Z,4.69
2019-02-27T22:28:46.145Z,4.74
2019-02-27T22:31:15.470Z,4.51
2019-02-27T22:33:46.240Z,4.43
2019-02-27T22:36:15.045Z,4.23
2019-02-27T22:38:43.899Z,4.37
2019-02-27T22:41:12.897Z,4.12
2019-02-27T22:43:41.712Z,3.91
2019-02-27T22:46:10.501Z,4.17
2019-02-27T22:48:39.471Z,4.21
2019-02-27T22:51:08.088Z,4.19
2019-02-27T22:53:36.797Z,3.98
2019-02-27T22:56:07.774Z,3.51
2019-02-27T22:58:36.391Z,3.53
2019-02-27T23:01:15.138Z,3.70
2019-02-27T23:03:50.272Z,3.80
2019-02-27T23:06:18.928Z,3.85
2019-02-27T23:08:47.860Z,3.82
2019-02-27T23:11:16.653Z,3.47
2019-02-27T23:13:49.117Z,3.57
2019-02-27T23:16:19.261Z,3.62
2019-02-27T23:18:48.305Z,3.49
2019-02-27T23:21:17.158Z,3.53
2019-02-27T23:23:47.543Z,3.50
2019-02-27T23:26:19.780Z,3.19
2019-02-27T23:28:47.532Z,3.04
2019-02-27T23:31:22.379Z,3.01
2019-02-27T23:33:48.451Z,3.16
2019-02-27T23:36:17.185Z,3.38
2019-02-27T23:38:45.884Z,3.42
2019-02-27T23:41:14.802Z,3.44
2019-02-27T23:43:43.626Z,3.43
2019-02-27T23:46:15.736Z,3.36
2019-02-27T23:48:43.535Z,3.23
2019-02-27T23:51:15.674Z,3.31
2019-02-27T23:53:43.868Z,3.38
2019-02-27T23:56:12.659Z,3.16
2019-02-27T23:58:41.531Z,3.12
